sensor_id;sensor_type;location;lat;lon;timestamp;temperature;humidity
23301;DHT22;11819;51.394;12.340;2023-02-11T00:01:51;2.90;90.10
23301;DHT22;11819;51.394;12.340;2023-02-11T00:04:17;2.90;90.10
23301;DHT22;11819;51.394;12.340;2023-02-11T00:06:43;2.90;90.10
23301;DHT22;11819;51.394;12.340;2023-02-11T00:09:10;2.90;90.10
23301;DHT22;11819;51.394;12.340;2023-02-11T00:11:36;2.90;90.10
23301;DHT22;11819;51.394;12.340;2023-02-11T00:14:04;2.90;90.10
23301;DHT22;11819;51.394;12.340;2023-02-11T00:16:30;2.90;90.10
23301;DHT22;11819;51.394;12.340;2023-02-11T00:18:58;2.90;90.20
23301;DHT22;11819;51.394;12.340;2023-02-11T00:21:25;2.90;90.10
23301;DHT22;11819;51.394;12.340;2023-02-11T00:23:51;2.90;90.20
23301;DHT22;11819;51.394;12.340;2023-02-11T00:26:20;2.90;90.20
23301;DHT22;11819;51.394;12.340;2023-02-11T00:28:47;2.90;90.60
23301;DHT22;11819;51.394;12.340;2023-02-11T00:31:14;2.90;90.20
23301;DHT22;11819;51.394;12.340;2023-02-11T00:33:40;2.90;90.20
23301;DHT22;11819;51.394;12.340;2023-02-11T00:36:09;3.00;90.20
23301;DHT22;11819;51.394;12.340;2023-02-11T00:38:35;3.00;90.20
23301;DHT22;11819;51.394;12.340;2023-02-11T00:41:00;3.00;90.20
23301;DHT22;11819;51.394;12.340;2023-02-11T00:43:26;3.00;90.20
23301;DHT22;11819;51.394;12.340;2023-02-11T00:45:52;3.00;90.20
23301;DHT22;11819;51.394;12.340;2023-02-11T00:48:19;3.00;90.20
23301;DHT22;11819;51.394;12.340;2023-02-11T00:50:45;3.00;90.10
23301;DHT22;11819;51.394;12.340;2023-02-11T00:53:11;3.00;90.10
23301;DHT22;11819;51.394;12.340;2023-02-11T00:55:37;3.00;90.20
23301;DHT22;11819;51.394;12.340;2023-02-11T00:58:03;3.00;90.20
23301;DHT22;11819;51.394;12.340;2023-02-11T01:00:29;3.00;90.20
23301;DHT22;11819;51.394;12.340;2023-02-11T01:02:55;3.00;90.20
23301;DHT22;11819;51.394;12.340;2023-02-11T01:05:21;3.00;90.20
23301;DHT22;11819;51.394;12.340;2023-02-11T01:07:48;3.00;90.20
23301;DHT22;11819;51.394;12.340;2023-02-11T01:10:15;3.00;90.30
23301;DHT22;11819;51.394;12.340;2023-02-11T01:12:40;3.00;90.40
23301;DHT22;11819;51.394;12.340;2023-02-11T01:15:08;3.00;90.40
23301;DHT22;11819;51.394;12.340;2023-02-11T01:17:35;3.00;90.50
23301;DHT22;11819;51.394;12.340;2023-02-11T01:20:04;3.00;90.50
23301;DHT22;11819;51.394;12.340;2023-02-11T01:22:33;3.00;90.60
23301;DHT22;11819;51.394;12.340;2023-02-11T01:25:04;3.00;90.60
23301;DHT22;11819;51.394;12.340;2023-02-11T01:27:30;3.00;90.60
23301;DHT22;11819;51.394;12.340;2023-02-11T01:29:56;3.00;91.00
23301;DHT22;11819;51.394;12.340;2023-02-11T01:32:22;3.00;90.70
23301;DHT22;11819;51.394;12.340;2023-02-11T01:34:48;3.00;90.70
23301;DHT22;11819;51.394;12.340;2023-02-11T01:44:34;3.00;90.80
23301;DHT22;11819;51.394;12.340;2023-02-11T01:47:01;3.00;90.80
23301;DHT22;11819;51.394;12.340;2023-02-11T01:49:38;3.00;90.80
23301;DHT22;11819;51.394;12.340;2023-02-11T01:52:22;3.00;90.90
23301;DHT22;11819;51.394;12.340;2023-02-11T01:54:51;3.00;90.90
23301;DHT22;11819;51.394;12.340;2023-02-11T01:57:38;3.10;90.90
23301;DHT22;11819;51.394;12.340;2023-02-11T02:03:05;3.10;90.90
23301;DHT22;11819;51.394;12.340;2023-02-11T02:05:58;3.10;90.90
23301;DHT22;11819;51.394;12.340;2023-02-11T02:08:34;3.20;90.80
23301;DHT22;11819;51.394;12.340;2023-02-11T02:11:04;3.20;90.80
23301;DHT22;11819;51.394;12.340;2023-02-11T02:13:32;3.20;90.70
23301;DHT22;11819;51.394;12.340;2023-02-11T02:16:06;3.20;90.70
23301;DHT22;11819;51.394;12.340;2023-02-11T02:18:47;3.30;90.70
23301;DHT22;11819;51.394;12.340;2023-02-11T02:30:01;3.30;90.60
23301;DHT22;11819;51.394;12.340;2023-02-11T02:40:51;3.40;90.50
23301;DHT22;11819;51.394;12.340;2023-02-11T02:43:20;3.40;90.50
23301;DHT22;11819;51.394;12.340;2023-02-11T02:45:47;3.40;90.50
23301;DHT22;11819;51.394;12.340;2023-02-11T02:48:30;3.40;90.50
23301;DHT22;11819;51.394;12.340;2023-02-11T02:51:12;3.40;90.50
23301;DHT22;11819;51.394;12.340;2023-02-11T02:56:53;3.50;90.60
23301;DHT22;11819;51.394;12.340;2023-02-11T03:08:17;3.50;90.70
23301;DHT22;11819;51.394;12.340;2023-02-11T03:10:49;3.60;90.70
23301;DHT22;11819;51.394;12.340;2023-02-11T03:13:19;3.60;90.70
23301;DHT22;11819;51.394;12.340;2023-02-11T03:15:49;3.60;90.70
23301;DHT22;11819;51.394;12.340;2023-02-11T03:18:18;3.60;90.70
23301;DHT22;11819;51.394;12.340;2023-02-11T03:20:49;3.60;90.70
23301;DHT22;11819;51.394;12.340;2023-02-11T03:23:22;3.60;90.70
23301;DHT22;11819;51.394;12.340;2023-02-11T03:25:58;3.70;90.80
23301;DHT22;11819;51.394;12.340;2023-02-11T03:28:59;3.70;90.80
23301;DHT22;11819;51.394;12.340;2023-02-11T03:31:55;3.70;90.80
23301;DHT22;11819;51.394;12.340;2023-02-11T03:34:32;3.70;90.90
23301;DHT22;11819;51.394;12.340;2023-02-11T03:37:06;3.70;90.90
23301;DHT22;11819;51.394;12.340;2023-02-11T03:39:44;3.70;90.90
23301;DHT22;11819;51.394;12.340;2023-02-11T03:42:12;3.70;90.90
23301;DHT22;11819;51.394;12.340;2023-02-11T03:44:47;3.70;90.90
23301;DHT22;11819;51.394;12.340;2023-02-11T03:47:17;3.70;91.00
23301;DHT22;11819;51.394;12.340;2023-02-11T03:49:46;3.70;91.00
23301;DHT22;11819;51.394;12.340;2023-02-11T03:52:15;3.80;91.10
23301;DHT22;11819;51.394;12.340;2023-02-11T03:54:42;3.80;91.10
23301;DHT22;11819;51.394;12.340;2023-02-11T03:57:10;3.80;91.00
23301;DHT22;11819;51.394;12.340;2023-02-11T03:59:56;3.80;91.00
23301;DHT22;11819;51.394;12.340;2023-02-11T04:02:29;3.80;91.00
23301;DHT22;11819;51.394;12.340;2023-02-11T04:04:55;3.80;91.00
23301;DHT22;11819;51.394;12.340;2023-02-11T04:07:22;3.80;91.10
23301;DHT22;11819;51.394;12.340;2023-02-11T04:09:48;3.80;91.10
23301;DHT22;11819;51.394;12.340;2023-02-11T04:12:14;3.80;91.10
23301;DHT22;11819;51.394;12.340;2023-02-11T04:14:40;3.80;91.10
23301;DHT22;11819;51.394;12.340;2023-02-11T04:17:05;3.80;91.10
23301;DHT22;11819;51.394;12.340;2023-02-11T04:19:31;3.80;91.20
23301;DHT22;11819;51.394;12.340;2023-02-11T04:21:57;3.80;91.20
23301;DHT22;11819;51.394;12.340;2023-02-11T04:24:22;3.90;91.20
23301;DHT22;11819;51.394;12.340;2023-02-11T04:26:48;3.80;91.20
23301;DHT22;11819;51.394;12.340;2023-02-11T04:29:13;3.90;91.30
23301;DHT22;11819;51.394;12.340;2023-02-11T04:31:39;3.90;91.30
23301;DHT22;11819;51.394;12.340;2023-02-11T04:34:05;3.90;91.30
23301;DHT22;11819;51.394;12.340;2023-02-11T04:36:30;3.90;91.30
23301;DHT22;11819;51.394;12.340;2023-02-11T04:38:56;3.90;91.30
23301;DHT22;11819;51.394;12.340;2023-02-11T04:41:21;3.90;91.30
23301;DHT22;11819;51.394;12.340;2023-02-11T04:43:47;3.90;91.40
23301;DHT22;11819;51.394;12.340;2023-02-11T04:46:12;4.00;91.40
23301;DHT22;11819;51.394;12.340;2023-02-11T04:48:39;4.00;91.40
23301;DHT22;11819;51.394;12.340;2023-02-11T04:51:05;4.00;91.40
23301;DHT22;11819;51.394;12.340;2023-02-11T04:53:31;4.00;91.40
23301;DHT22;11819;51.394;12.340;2023-02-11T04:55:56;4.00;91.40
23301;DHT22;11819;51.394;12.340;2023-02-11T04:58:22;4.00;91.40
23301;DHT22;11819;51.394;12.340;2023-02-11T05:00:49;4.00;91.40
23301;DHT22;11819;51.394;12.340;2023-02-11T05:03:15;4.00;91.40
23301;DHT22;11819;51.394;12.340;2023-02-11T05:05:43;4.10;91.40
23301;DHT22;11819;51.394;12.340;2023-02-11T05:08:10;4.10;91.50
23301;DHT22;11819;51.394;12.340;2023-02-11T05:10:35;4.10;91.40
23301;DHT22;11819;51.394;12.340;2023-02-11T05:13:01;4.10;91.40
23301;DHT22;11819;51.394;12.340;2023-02-11T05:15:27;4.10;91.40
23301;DHT22;11819;51.394;12.340;2023-02-11T05:17:53;4.20;91.50
23301;DHT22;11819;51.394;12.340;2023-02-11T05:20:19;4.20;91.40
23301;DHT22;11819;51.394;12.340;2023-02-11T05:22:46;4.20;91.40
23301;DHT22;11819;51.394;12.340;2023-02-11T05:25:11;4.30;91.40
23301;DHT22;11819;51.394;12.340;2023-02-11T05:27:38;4.30;91.30
23301;DHT22;11819;51.394;12.340;2023-02-11T05:30:06;4.30;91.30
23301;DHT22;11819;51.394;12.340;2023-02-11T05:32:32;4.30;91.30
23301;DHT22;11819;51.394;12.340;2023-02-11T05:34:58;4.30;91.30
23301;DHT22;11819;51.394;12.340;2023-02-11T05:37:24;4.40;91.30
23301;DHT22;11819;51.394;12.340;2023-02-11T05:39:50;4.40;91.30
23301;DHT22;11819;51.394;12.340;2023-02-11T05:42:15;4.40;91.30
23301;DHT22;11819;51.394;12.340;2023-02-11T05:44:41;4.40;91.30
23301;DHT22;11819;51.394;12.340;2023-02-11T05:47:07;4.50;91.40
23301;DHT22;11819;51.394;12.340;2023-02-11T05:49:35;4.40;91.30
23301;DHT22;11819;51.394;12.340;2023-02-11T05:52:01;4.50;91.30
23301;DHT22;11819;51.394;12.340;2023-02-11T05:54:26;4.50;91.30
23301;DHT22;11819;51.394;12.340;2023-02-11T05:56:53;4.50;91.30
23301;DHT22;11819;51.394;12.340;2023-02-11T05:59:19;4.50;91.30
23301;DHT22;11819;51.394;12.340;2023-02-11T06:01:45;4.50;91.30
23301;DHT22;11819;51.394;12.340;2023-02-11T06:04:12;4.50;91.30
23301;DHT22;11819;51.394;12.340;2023-02-11T06:06:37;4.50;91.30
23301;DHT22;11819;51.394;12.340;2023-02-11T06:09:03;4.50;91.30
23301;DHT22;11819;51.394;12.340;2023-02-11T06:11:30;4.50;91.30
23301;DHT22;11819;51.394;12.340;2023-02-11T06:13:56;4.60;91.40
23301;DHT22;11819;51.394;12.340;2023-02-11T06:16:22;4.50;91.40
23301;DHT22;11819;51.394;12.340;2023-02-11T06:18:48;4.60;91.40
23301;DHT22;11819;51.394;12.340;2023-02-11T06:21:13;4.50;91.40
23301;DHT22;11819;51.394;12.340;2023-02-11T06:23:49;4.50;91.50
23301;DHT22;11819;51.394;12.340;2023-02-11T06:26:20;4.60;91.50
23301;DHT22;11819;51.394;12.340;2023-02-11T06:28:46;4.50;91.40
23301;DHT22;11819;51.394;12.340;2023-02-11T06:31:26;4.60;91.50
23301;DHT22;11819;51.394;12.340;2023-02-11T06:33:56;4.60;91.50
23301;DHT22;11819;51.394;12.340;2023-02-11T06:36:23;4.60;91.50
23301;DHT22;11819;51.394;12.340;2023-02-11T06:38:51;4.60;91.50
23301;DHT22;11819;51.394;12.340;2023-02-11T06:41:17;4.60;91.40
23301;DHT22;11819;51.394;12.340;2023-02-11T06:43:46;4.60;91.40
23301;DHT22;11819;51.394;12.340;2023-02-11T06:46:15;4.60;91.50
23301;DHT22;11819;51.394;12.340;2023-02-11T06:48:44;4.60;91.40
23301;DHT22;11819;51.394;12.340;2023-02-11T06:51:14;4.60;91.50
23301;DHT22;11819;51.394;12.340;2023-02-11T06:53:43;4.70;91.50
23301;DHT22;11819;51.394;12.340;2023-02-11T06:56:19;4.70;91.50
23301;DHT22;11819;51.394;12.340;2023-02-11T06:58:45;4.70;91.50
23301;DHT22;11819;51.394;12.340;2023-02-11T07:01:14;4.70;91.50
23301;DHT22;11819;51.394;12.340;2023-02-11T07:03:41;4.70;91.50
23301;DHT22;11819;51.394;12.340;2023-02-11T07:06:12;4.70;91.50
23301;DHT22;11819;51.394;12.340;2023-02-11T07:08:38;4.80;91.40
23301;DHT22;11819;51.394;12.340;2023-02-11T07:11:30;4.80;91.40
23301;DHT22;11819;51.394;12.340;2023-02-11T07:14:03;4.80;91.40
23301;DHT22;11819;51.394;12.340;2023-02-11T07:16:30;4.80;91.40
23301;DHT22;11819;51.394;12.340;2023-02-11T07:18:57;4.80;91.50
23301;DHT22;11819;51.394;12.340;2023-02-11T07:21:23;4.80;91.50
23301;DHT22;11819;51.394;12.340;2023-02-11T07:23:50;4.90;91.50
23301;DHT22;11819;51.394;12.340;2023-02-11T07:26:18;4.90;91.50
23301;DHT22;11819;51.394;12.340;2023-02-11T07:28:45;4.90;91.50
23301;DHT22;11819;51.394;12.340;2023-02-11T07:31:17;4.90;91.50
23301;DHT22;11819;51.394;12.340;2023-02-11T07:33:44;4.90;91.50
23301;DHT22;11819;51.394;12.340;2023-02-11T07:36:14;4.90;91.50
23301;DHT22;11819;51.394;12.340;2023-02-11T07:38:40;4.90;91.50
23301;DHT22;11819;51.394;12.340;2023-02-11T07:41:08;4.90;91.50
23301;DHT22;11819;51.394;12.340;2023-02-11T07:43:36;5.00;91.60
23301;DHT22;11819;51.394;12.340;2023-02-11T07:46:03;5.00;91.60
23301;DHT22;11819;51.394;12.340;2023-02-11T07:48:29;5.00;91.60
23301;DHT22;11819;51.394;12.340;2023-02-11T07:50:54;5.00;91.50
23301;DHT22;11819;51.394;12.340;2023-02-11T07:53:20;5.00;91.50
23301;DHT22;11819;51.394;12.340;2023-02-11T07:55:46;5.10;91.50
23301;DHT22;11819;51.394;12.340;2023-02-11T07:58:11;5.10;91.40
23301;DHT22;11819;51.394;12.340;2023-02-11T08:00:37;5.20;91.30
23301;DHT22;11819;51.394;12.340;2023-02-11T08:03:02;5.20;91.30
23301;DHT22;11819;51.394;12.340;2023-02-11T08:05:28;5.20;91.20
23301;DHT22;11819;51.394;12.340;2023-02-11T08:07:54;5.20;91.20
23301;DHT22;11819;51.394;12.340;2023-02-11T08:10:20;5.20;91.20
23301;DHT22;11819;51.394;12.340;2023-02-11T08:12:46;5.20;91.10
23301;DHT22;11819;51.394;12.340;2023-02-11T08:15:12;5.30;91.10
23301;DHT22;11819;51.394;12.340;2023-02-11T08:17:38;5.30;91.10
23301;DHT22;11819;51.394;12.340;2023-02-11T08:20:05;5.40;91.10
23301;DHT22;11819;51.394;12.340;2023-02-11T08:22:32;5.40;91.10
23301;DHT22;11819;51.394;12.340;2023-02-11T08:24:58;5.40;90.90
23301;DHT22;11819;51.394;12.340;2023-02-11T08:27:24;5.50;90.90
23301;DHT22;11819;51.394;12.340;2023-02-11T08:29:51;5.50;91.00
23301;DHT22;11819;51.394;12.340;2023-02-11T08:32:17;5.50;90.90
23301;DHT22;11819;51.394;12.340;2023-02-11T08:34:42;5.50;91.00
23301;DHT22;11819;51.394;12.340;2023-02-11T08:37:08;5.50;90.90
23301;DHT22;11819;51.394;12.340;2023-02-11T08:39:33;5.50;91.00
23301;DHT22;11819;51.394;12.340;2023-02-11T08:41:59;5.50;91.00
23301;DHT22;11819;51.394;12.340;2023-02-11T08:44:25;5.60;91.10
23301;DHT22;11819;51.394;12.340;2023-02-11T08:46:51;5.60;91.10
23301;DHT22;11819;51.394;12.340;2023-02-11T08:49:17;5.60;91.10
23301;DHT22;11819;51.394;12.340;2023-02-11T08:51:43;5.60;91.10
23301;DHT22;11819;51.394;12.340;2023-02-11T08:54:10;5.70;91.10
23301;DHT22;11819;51.394;12.340;2023-02-11T08:56:37;5.70;91.00
23301;DHT22;11819;51.394;12.340;2023-02-11T08:59:03;5.70;91.10
23301;DHT22;11819;51.394;12.340;2023-02-11T09:01:29;5.70;91.10
23301;DHT22;11819;51.394;12.340;2023-02-11T09:03:56;5.70;91.20
23301;DHT22;11819;51.394;12.340;2023-02-11T09:06:23;5.70;91.20
23301;DHT22;11819;51.394;12.340;2023-02-11T09:08:51;5.80;91.20
23301;DHT22;11819;51.394;12.340;2023-02-11T09:11:19;5.80;91.20
23301;DHT22;11819;51.394;12.340;2023-02-11T09:13:45;5.80;91.20
23301;DHT22;11819;51.394;12.340;2023-02-11T09:16:23;5.80;91.20
23301;DHT22;11819;51.394;12.340;2023-02-11T09:18:49;5.90;91.20
23301;DHT22;11819;51.394;12.340;2023-02-11T09:21:16;5.90;91.30
23301;DHT22;11819;51.394;12.340;2023-02-11T09:23:42;5.90;91.30
23301;DHT22;11819;51.394;12.340;2023-02-11T09:26:16;5.90;91.40
23301;DHT22;11819;51.394;12.340;2023-02-11T09:28:42;5.90;91.40
23301;DHT22;11819;51.394;12.340;2023-02-11T09:31:11;5.90;91.40
23301;DHT22;11819;51.394;12.340;2023-02-11T09:33:39;6.00;91.40
23301;DHT22;11819;51.394;12.340;2023-02-11T09:36:07;6.00;91.50
23301;DHT22;11819;51.394;12.340;2023-02-11T09:38:33;5.90;91.50
23301;DHT22;11819;51.394;12.340;2023-02-11T09:40:59;6.00;91.60
23301;DHT22;11819;51.394;12.340;2023-02-11T09:43:42;6.00;91.60
23301;DHT22;11819;51.394;12.340;2023-02-11T09:46:14;6.00;91.60
23301;DHT22;11819;51.394;12.340;2023-02-11T09:48:43;6.10;91.70
23301;DHT22;11819;51.394;12.340;2023-02-11T09:51:19;6.10;91.70
23301;DHT22;11819;51.394;12.340;2023-02-11T09:53:50;6.20;91.70
23301;DHT22;11819;51.394;12.340;2023-02-11T09:56:18;6.20;91.60
23301;DHT22;11819;51.394;12.340;2023-02-11T09:58:45;6.20;91.50
23301;DHT22;11819;51.394;12.340;2023-02-11T10:01:38;6.20;91.60
23301;DHT22;11819;51.394;12.340;2023-02-11T10:04:32;6.20;91.60
23301;DHT22;11819;51.394;12.340;2023-02-11T10:07:16;6.20;91.70
23301;DHT22;11819;51.394;12.340;2023-02-11T10:09:51;6.20;91.70
23301;DHT22;11819;51.394;12.340;2023-02-11T10:20:30;6.40;91.70
23301;DHT22;11819;51.394;12.340;2023-02-11T10:22:59;6.40;91.60
23301;DHT22;11819;51.394;12.340;2023-02-11T10:25:32;6.40;91.60
23301;DHT22;11819;51.394;12.340;2023-02-11T10:28:00;6.50;91.60
23301;DHT22;11819;51.394;12.340;2023-02-11T10:30:40;6.50;92.00
23301;DHT22;11819;51.394;12.340;2023-02-11T10:33:23;6.50;91.70
23301;DHT22;11819;51.394;12.340;2023-02-11T10:35:51;6.50;91.70
23301;DHT22;11819;51.394;12.340;2023-02-11T10:38:17;6.50;91.70
23301;DHT22;11819;51.394;12.340;2023-02-11T10:40:43;6.60;91.80
23301;DHT22;11819;51.394;12.340;2023-02-11T10:43:14;6.60;91.70
23301;DHT22;11819;51.394;12.340;2023-02-11T10:45:53;6.60;91.70
23301;DHT22;11819;51.394;12.340;2023-02-11T10:56:48;6.60;91.60
23301;DHT22;11819;51.394;12.340;2023-02-11T10:59:30;6.70;91.50
23301;DHT22;11819;51.394;12.340;2023-02-11T11:04:45;6.70;91.50
23301;DHT22;11819;51.394;12.340;2023-02-11T11:07:21;6.70;91.50
23301;DHT22;11819;51.394;12.340;2023-02-11T11:10:04;6.70;91.40
23301;DHT22;11819;51.394;12.340;2023-02-11T11:15:12;6.70;91.40
23301;DHT22;11819;51.394;12.340;2023-02-11T11:17:38;6.70;91.40
23301;DHT22;11819;51.394;12.340;2023-02-11T11:20:23;6.80;91.50
23301;DHT22;11819;51.394;12.340;2023-02-11T11:22:51;6.80;91.50
23301;DHT22;11819;51.394;12.340;2023-02-11T11:25:28;6.80;91.40
23301;DHT22;11819;51.394;12.340;2023-02-11T11:27:57;6.80;91.40
23301;DHT22;11819;51.394;12.340;2023-02-11T11:30:30;6.80;91.50
23301;DHT22;11819;51.394;12.340;2023-02-11T11:32:58;6.80;91.50
23301;DHT22;11819;51.394;12.340;2023-02-11T11:35:29;6.80;91.40
23301;DHT22;11819;51.394;12.340;2023-02-11T11:38:03;6.80;91.40
23301;DHT22;11819;51.394;12.340;2023-02-11T11:40:32;6.90;91.40
23301;DHT22;11819;51.394;12.340;2023-02-11T11:45:33;6.90;91.40
23301;DHT22;11819;51.394;12.340;2023-02-11T11:48:11;6.90;91.40
23301;DHT22;11819;51.394;12.340;2023-02-11T11:50:46;6.90;91.40
23301;DHT22;11819;51.394;12.340;2023-02-11T11:56:15;7.00;91.40
23301;DHT22;11819;51.394;12.340;2023-02-11T11:58:43;7.00;91.30
23301;DHT22;11819;51.394;12.340;2023-02-11T12:01:30;7.00;91.20
23301;DHT22;11819;51.394;12.340;2023-02-11T12:04:02;7.00;91.20
23301;DHT22;11819;51.394;12.340;2023-02-11T12:06:46;7.00;91.20
23301;DHT22;11819;51.394;12.340;2023-02-11T12:12:32;7.00;91.20
23301;DHT22;11819;51.394;12.340;2023-02-11T12:15:35;7.00;91.20
23301;DHT22;11819;51.394;12.340;2023-02-11T12:27:38;7.00;91.30
23301;DHT22;11819;51.394;12.340;2023-02-11T12:39:01;7.10;91.40
23301;DHT22;11819;51.394;12.340;2023-02-11T12:41:49;7.10;91.40
23301;DHT22;11819;51.394;12.340;2023-02-11T12:45:40;7.10;91.40
23301;DHT22;11819;51.394;12.340;2023-02-11T13:08:39;7.10;91.60
23301;DHT22;11819;51.394;12.340;2023-02-11T13:11:13;7.10;91.50
23301;DHT22;11819;51.394;12.340;2023-02-11T13:16:37;7.10;91.50
23301;DHT22;11819;51.394;12.340;2023-02-11T13:24:50;7.10;91.70
23301;DHT22;11819;51.394;12.340;2023-02-11T13:35:27;7.10;91.90
23301;DHT22;11819;51.394;12.340;2023-02-11T13:37:55;7.10;91.90
23301;DHT22;11819;51.394;12.340;2023-02-11T13:40:25;7.10;92.00
23301;DHT22;11819;51.394;12.340;2023-02-11T13:43:02;7.10;91.90
23301;DHT22;11819;51.394;12.340;2023-02-11T13:45:42;7.10;92.00
23301;DHT22;11819;51.394;12.340;2023-02-11T13:48:32;7.10;92.00
23301;DHT22;11819;51.394;12.340;2023-02-11T13:51:09;7.10;92.00
23301;DHT22;11819;51.394;12.340;2023-02-11T13:53:50;7.20;92.10
23301;DHT22;11819;51.394;12.340;2023-02-11T13:56:34;7.10;92.10
23301;DHT22;11819;51.394;12.340;2023-02-11T14:10:56;7.30;92.20
23301;DHT22;11819;51.394;12.340;2023-02-11T14:13:27;7.20;92.20
23301;DHT22;11819;51.394;12.340;2023-02-11T14:18:57;7.30;92.20
23301;DHT22;11819;51.394;12.340;2023-02-11T14:27:02;7.40;92.20
23301;DHT22;11819;51.394;12.340;2023-02-11T14:30:25;7.30;92.20
23301;DHT22;11819;51.394;12.340;2023-02-11T14:38:17;7.40;92.20
23301;DHT22;11819;51.394;12.340;2023-02-11T14:40:54;7.40;92.20
23301;DHT22;11819;51.394;12.340;2023-02-11T14:43:25;7.40;92.20
23301;DHT22;11819;51.394;12.340;2023-02-11T14:45:55;7.40;92.20
23301;DHT22;11819;51.394;12.340;2023-02-11T14:48:29;7.40;92.20
23301;DHT22;11819;51.394;12.340;2023-02-11T14:51:12;7.40;92.20
23301;DHT22;11819;51.394;12.340;2023-02-11T14:53:46;7.40;92.20
23301;DHT22;11819;51.394;12.340;2023-02-11T14:56:31;7.40;92.30
23301;DHT22;11819;51.394;12.340;2023-02-11T14:58:59;7.40;92.30
23301;DHT22;11819;51.394;12.340;2023-02-11T15:01:38;7.40;92.40
23301;DHT22;11819;51.394;12.340;2023-02-11T15:04:13;7.40;92.50
23301;DHT22;11819;51.394;12.340;2023-02-11T15:06:47;7.40;92.50
23301;DHT22;11819;51.394;12.340;2023-02-11T15:09:18;7.40;92.50
23301;DHT22;11819;51.394;12.340;2023-02-11T15:11:48;7.40;92.50
23301;DHT22;11819;51.394;12.340;2023-02-11T15:14:34;7.40;92.60
23301;DHT22;11819;51.394;12.340;2023-02-11T15:17:05;7.50;92.60
23301;DHT22;11819;51.394;12.340;2023-02-11T15:19:43;7.40;92.60
23301;DHT22;11819;51.394;12.340;2023-02-11T15:22:23;7.50;92.70
23301;DHT22;11819;51.394;12.340;2023-02-11T15:25:00;7.50;92.60
23301;DHT22;11819;51.394;12.340;2023-02-11T15:27:40;7.50;92.70
23301;DHT22;11819;51.394;12.340;2023-02-11T15:30:28;7.50;92.70
23301;DHT22;11819;51.394;12.340;2023-02-11T15:32:59;7.50;92.80
23301;DHT22;11819;51.394;12.340;2023-02-11T15:35:33;7.50;92.80
23301;DHT22;11819;51.394;12.340;2023-02-11T15:37:59;7.60;92.90
23301;DHT22;11819;51.394;12.340;2023-02-11T15:40:29;7.60;92.90
23301;DHT22;11819;51.394;12.340;2023-02-11T15:43:01;7.60;93.00
23301;DHT22;11819;51.394;12.340;2023-02-11T15:45:40;7.60;93.10
23301;DHT22;11819;51.394;12.340;2023-02-11T15:48:18;7.70;93.20
23301;DHT22;11819;51.394;12.340;2023-02-11T15:50:51;7.70;93.30
23301;DHT22;11819;51.394;12.340;2023-02-11T15:53:35;7.70;93.30
23301;DHT22;11819;51.394;12.340;2023-02-11T15:56:10;7.70;93.30
23301;DHT22;11819;51.394;12.340;2023-02-11T15:58:39;7.70;93.30
23301;DHT22;11819;51.394;12.340;2023-02-11T16:01:05;7.70;93.30
23301;DHT22;11819;51.394;12.340;2023-02-11T16:03:32;7.70;93.30
23301;DHT22;11819;51.394;12.340;2023-02-11T16:06:23;7.80;93.30
23301;DHT22;11819;51.394;12.340;2023-02-11T16:14:26;7.80;93.40
23301;DHT22;11819;51.394;12.340;2023-02-11T16:16:57;7.80;93.40
23301;DHT22;11819;51.394;12.340;2023-02-11T16:19:25;7.80;93.40
23301;DHT22;11819;51.394;12.340;2023-02-11T16:21:51;7.80;93.50
23301;DHT22;11819;51.394;12.340;2023-02-11T16:24:24;7.80;93.50
23301;DHT22;11819;51.394;12.340;2023-02-11T16:26:54;7.80;93.50
23301;DHT22;11819;51.394;12.340;2023-02-11T16:29:27;7.80;93.50
23301;DHT22;11819;51.394;12.340;2023-02-11T16:32:04;7.80;93.60
23301;DHT22;11819;51.394;12.340;2023-02-11T16:34:31;7.80;93.60
23301;DHT22;11819;51.394;12.340;2023-02-11T16:36:57;7.80;93.70
23301;DHT22;11819;51.394;12.340;2023-02-11T16:39:22;7.70;93.80
23301;DHT22;11819;51.394;12.340;2023-02-11T16:41:49;7.70;93.90
23301;DHT22;11819;51.394;12.340;2023-02-11T16:44:16;7.70;94.00
23301;DHT22;11819;51.394;12.340;2023-02-11T16:46:42;7.70;94.10
23301;DHT22;11819;51.394;12.340;2023-02-11T16:49:23;7.70;94.10
23301;DHT22;11819;51.394;12.340;2023-02-11T16:51:50;7.60;94.10
23301;DHT22;11819;51.394;12.340;2023-02-11T16:54:18;7.70;94.30
23301;DHT22;11819;51.394;12.340;2023-02-11T16:56:44;7.70;94.40
23301;DHT22;11819;51.394;12.340;2023-02-11T16:59:10;7.60;94.30
23301;DHT22;11819;51.394;12.340;2023-02-11T17:01:37;7.60;94.30
23301;DHT22;11819;51.394;12.340;2023-02-11T17:04:04;7.60;94.40
23301;DHT22;11819;51.394;12.340;2023-02-11T17:06:32;7.60;94.50
23301;DHT22;11819;51.394;12.340;2023-02-11T17:08:58;7.60;94.50
23301;DHT22;11819;51.394;12.340;2023-02-11T17:11:24;7.60;94.50
23301;DHT22;11819;51.394;12.340;2023-02-11T17:13:50;7.70;94.60
23301;DHT22;11819;51.394;12.340;2023-02-11T17:16:17;7.70;94.60
23301;DHT22;11819;51.394;12.340;2023-02-11T17:18:44;7.60;94.50
23301;DHT22;11819;51.394;12.340;2023-02-11T17:21:10;7.70;94.60
23301;DHT22;11819;51.394;12.340;2023-02-11T17:23:35;7.60;94.60
23301;DHT22;11819;51.394;12.340;2023-02-11T17:26:02;7.60;94.60
23301;DHT22;11819;51.394;12.340;2023-02-11T17:28:27;7.70;94.60
23301;DHT22;11819;51.394;12.340;2023-02-11T17:30:53;7.70;94.60
23301;DHT22;11819;51.394;12.340;2023-02-11T17:33:18;7.60;95.00
23301;DHT22;11819;51.394;12.340;2023-02-11T17:35:45;7.70;94.60
23301;DHT22;11819;51.394;12.340;2023-02-11T17:38:10;7.70;94.70
23301;DHT22;11819;51.394;12.340;2023-02-11T17:40:36;7.60;94.70
23301;DHT22;11819;51.394;12.340;2023-02-11T17:43:02;7.70;94.70
23301;DHT22;11819;51.394;12.340;2023-02-11T17:45:29;7.70;94.80
23301;DHT22;11819;51.394;12.340;2023-02-11T17:47:54;7.60;94.90
23301;DHT22;11819;51.394;12.340;2023-02-11T17:50:21;7.70;94.90
23301;DHT22;11819;51.394;12.340;2023-02-11T17:52:47;7.70;94.90
23301;DHT22;11819;51.394;12.340;2023-02-11T17:55:12;7.70;95.40
23301;DHT22;11819;51.394;12.340;2023-02-11T17:57:38;7.70;95.10
23301;DHT22;11819;51.394;12.340;2023-02-11T18:00:05;7.70;95.10
23301;DHT22;11819;51.394;12.340;2023-02-11T18:02:38;7.70;95.20
23301;DHT22;11819;51.394;12.340;2023-02-11T18:05:04;7.60;95.20
23301;DHT22;11819;51.394;12.340;2023-02-11T18:07:29;7.60;95.50
23301;DHT22;11819;51.394;12.340;2023-02-11T18:09:55;7.60;95.60
23301;DHT22;11819;51.394;12.340;2023-02-11T18:12:22;7.50;95.80
23301;DHT22;11819;51.394;12.340;2023-02-11T18:14:51;7.50;96.00
23301;DHT22;11819;51.394;12.340;2023-02-11T18:17:21;7.50;96.10
23301;DHT22;11819;51.394;12.340;2023-02-11T18:19:47;7.50;96.10
23301;DHT22;11819;51.394;12.340;2023-02-11T18:22:13;7.50;96.20
23301;DHT22;11819;51.394;12.340;2023-02-11T18:24:39;7.50;96.30
23301;DHT22;11819;51.394;12.340;2023-02-11T18:27:05;7.50;96.40